Main page
METAR-TAF:

METAR-TAF

Airports :

Agen La Garenne Airport

Agen, France

latitude: 44-11N, longitude: 000-36E, elevation: 61 m

Current weather observation

The report was made 29 minutes ago, at 04:30 UTC
Wind 4 kt from the East/Southeast
Temperature -3°C
Humidity 93%
Pressure 1017 hPa
Visibility: 4200 m
mist

METAR: LFBA 160430Z AUTO 11004KT 4200 BR NSC M03/M04 Q1017

Time: 05:59 (04:59 UTC)

Forecast

The report was made 11 hours and 59 minutes ago, at 17:00 UTC
Forecast valid from 15 at 18 UTC to 16 at 03 UTC
Wind 3 kt from variable directions
Visibility 10 km or more
no clouds below 1500 m and no cumulonimbus
Temporary
from 15 at 22 UTC to 16 at 03 UTC
Visibility: 3000 m
mist
Probability 30% :
Temporary
from 16 at 00 UTC to 16 at 03 UTC
Visibility: 0200 m
fog

TAF: LFBA 151700Z 1518/1603 VRB03KT CAVOK TEMPO 1522/1603 3000 BR PROB30 TEMPO 1600/1603 0200 FG VV///

Weather observations and forecasts of more than 4000 airports (METAR and TAF reports).

The available stations are represented by yellow and red dots on the map.

Hover mouse over dot to see the name of the station.

Then click to see weather observations and forecasts.

To change the map : click on the green buttons with a black cross to zoom in, on the green button with a dash to zoom out, or on the green arrows for adjacent maps.


METAR-TAF: